Dolce Far Niente — CFK9784 — position and weather

sailwx.info

Track history (hours):
 
Tides and Currents Weather Stations Pressure Air Temp Water Temp Dewpoint Dewpoint Depression Visibility Wind Speed Wind Dir Waves Ship Positions

Dolce Far Niente

Last reported at 2016-Jun-27 18:25 UTC. Time now 2016-Jun-30 01:36 UTC.
Position N 50°16' W 125°14'.

Type: Pleasure craft. MMSI: 316020002.

Date/timePositionNaut miles runAvg speedWind from/ knotsBaromVisibWave heightAir tempDewpointWater temp
2016-Jun-27 18:25N 50°16' W 125°14'8 8.8
2016-Jun-27 17:33N 50°15' W 125°03'50 2.0
2016-Jun-26 17:06N 49°39' W 124°08'4 0.2
2016-Jun-25 20:07N 49°38' W 124°02'610.0
2016-Jun-25 19:32N 49°32' W 123°60'1717.3
2016-Jun-25 18:33N 49°24' W 123°37'1616.4
2016-Jun-25 17:33N 49°19' W 123°13'4 0.3
2016-Jun-25 04:31N 49°17' W 123°07'0 0.0
2016-Jun-25 03:31N 49°17' W 123°07'0 0.0
2016-Jun-25 02:31N 49°17' W 123°07'0 0.0
2016-Jun-25 01:31N 49°17' W 123°07'0 0.0
2016-Jun-25 00:31N 49°17' W 123°07'0 0.0
2016-Jun-24 23:32N 49°17' W 123°07'0 0.0
2016-Jun-24 22:31N 49°17' W 123°07'0 0.0
2016-Jun-24 21:31N 49°17' W 123°07'0 0.0
2016-Jun-24 20:31N 49°17' W 123°07'0 0.0
2016-Jun-24 19:31N 49°17' W 123°07'0 0.0
2016-Jun-24 18:31N 49°17' W 123°07'0 0.0
2016-Jun-24 17:31N 49°17' W 123°07'0 0.0
2016-Jun-24 16:31N 49°17' W 123°07'0 0.0
2016-Jun-24 15:31N 49°17' W 123°07'0 0.0
2016-Jun-24 14:31N 49°17' W 123°07'0 0.0
2016-Jun-24 13:31N 49°17' W 123°07'0 0.0
2016-Jun-24 12:31N 49°17' W 123°07'0 0.0
2016-Jun-24 11:31N 49°17' W 123°07'0 0.0
2016-Jun-24 10:31N 49°17' W 123°07'0 0.0
2016-Jun-24 09:31N 49°17' W 123°07'0 0.0
2016-Jun-24 08:31N 49°17' W 123°07'0 0.0
2016-Jun-24 07:31N 49°17' W 123°07'0 0.0
2016-Jun-24 04:31N 49°17' W 123°07'0 0.0
2016-Jun-24 03:31N 49°17' W 123°07'0 0.0
2016-Jun-24 02:31N 49°17' W 123°07'0 0.0
2016-Jun-24 01:31N 49°17' W 123°07'0 0.0
2016-Jun-24 00:31N 49°17' W 123°07'0 0.0
2016-Jun-23 23:31N 49°17' W 123°07'0 0.0
2016-Jun-23 22:31N 49°17' W 123°07'0 0.0
2016-Jun-23 21:31N 49°17' W 123°07'0 0.0
2016-Jun-23 20:28N 49°17' W 123°07'0 0.0
2016-Jun-23 19:31N 49°17' W 123°07'1 0.8
2016-Jun-23 18:34N 49°18' W 123°07'1413.8
2016-Jun-23 17:33N 49°13' W 123°26'  
Track history (hours):
 
Tides and Currents Weather Stations Pressure Air Temp Water Temp Dewpoint Dewpoint Depression Visibility Wind Speed Wind Dir Waves Ship Positions

Dolce Far Niente

Last reported at 2016-Jun-27 18:25 UTC. Time now 2016-Jun-30 01:36 UTC.
Position N 50°16' W 125°14'.

Type: Pleasure craft. MMSI: 316020002.

Date/timePositionNaut miles runAvg speedWind from/ knotsBaromVisibWave heightAir tempDewpointWater temp
2016-Jun-27 18:25N 50°16' W 125°14'8 8.8
2016-Jun-27 17:33N 50°15' W 125°03'50 2.0
2016-Jun-26 17:06N 49°39' W 124°08'4 0.2
2016-Jun-25 20:07N 49°38' W 124°02'610.0
2016-Jun-25 19:32N 49°32' W 123°60'1717.3
2016-Jun-25 18:33N 49°24' W 123°37'1616.4
2016-Jun-25 17:33N 49°19' W 123°13'4 0.3
2016-Jun-25 04:31N 49°17' W 123°07'0 0.0
2016-Jun-25 03:31N 49°17' W 123°07'0 0.0
2016-Jun-25 02:31N 49°17' W 123°07'0 0.0
2016-Jun-25 01:31N 49°17' W 123°07'0 0.0
2016-Jun-25 00:31N 49°17' W 123°07'0 0.0
2016-Jun-24 23:32N 49°17' W 123°07'0 0.0
2016-Jun-24 22:31N 49°17' W 123°07'0 0.0
2016-Jun-24 21:31N 49°17' W 123°07'0 0.0
2016-Jun-24 20:31N 49°17' W 123°07'0 0.0
2016-Jun-24 19:31N 49°17' W 123°07'0 0.0
2016-Jun-24 18:31N 49°17' W 123°07'0 0.0
2016-Jun-24 17:31N 49°17' W 123°07'0 0.0
2016-Jun-24 16:31N 49°17' W 123°07'0 0.0
2016-Jun-24 15:31N 49°17' W 123°07'0 0.0
2016-Jun-24 14:31N 49°17' W 123°07'0 0.0
2016-Jun-24 13:31N 49°17' W 123°07'0 0.0
2016-Jun-24 12:31N 49°17' W 123°07'0 0.0
2016-Jun-24 11:31N 49°17' W 123°07'0 0.0
2016-Jun-24 10:31N 49°17' W 123°07'0 0.0
2016-Jun-24 09:31N 49°17' W 123°07'0 0.0
2016-Jun-24 08:31N 49°17' W 123°07'0 0.0
2016-Jun-24 07:31N 49°17' W 123°07'0 0.0
2016-Jun-24 04:31N 49°17' W 123°07'0 0.0
2016-Jun-24 03:31N 49°17' W 123°07'0 0.0
2016-Jun-24 02:31N 49°17' W 123°07'0 0.0
2016-Jun-24 01:31N 49°17' W 123°07'0 0.0
2016-Jun-24 00:31N 49°17' W 123°07'0 0.0
2016-Jun-23 23:31N 49°17' W 123°07'0 0.0
2016-Jun-23 22:31N 49°17' W 123°07'0 0.0
2016-Jun-23 21:31N 49°17' W 123°07'0 0.0
2016-Jun-23 20:28N 49°17' W 123°07'0 0.0
2016-Jun-23 19:31N 49°17' W 123°07'1 0.8
2016-Jun-23 18:34N 49°18' W 123°07'1413.8
2016-Jun-23 17:33N 49°13' W 123°26'  

Dump ship's entire track history